createdAt,value
2019-03-11T00:00:22.493Z,59.48
2019-03-11T00:00:57.524Z,59.07
2019-03-11T00:01:30.590Z,58.03
2019-03-11T00:02:01.824Z,57.75
2019-03-11T00:02:33.067Z,57.91
2019-03-11T00:03:04.271Z,58.02
2019-03-11T00:03:35.430Z,58.42
2019-03-11T00:04:07.521Z,58.89
2019-03-11T00:04:39.482Z,59.39
2019-03-11T00:05:10.749Z,60.07
2019-03-11T00:05:42.011Z,60.89
2019-03-11T00:06:13.229Z,61.36
2019-03-11T00:06:44.455Z,62.05
2019-03-11T00:07:15.734Z,62.49
2019-03-11T00:07:46.991Z,63.70
2019-03-11T00:08:18.173Z,65.02
2019-03-11T00:08:49.378Z,65.60
2019-03-11T00:09:20.538Z,65.59
2019-03-11T00:09:51.751Z,65.19
2019-03-11T00:10:22.907Z,64.64
2019-03-11T00:10:54.138Z,63.89
2019-03-11T00:11:25.292Z,63.06
2019-03-11T00:11:56.491Z,62.33
2019-03-11T00:12:27.652Z,61.47
2019-03-11T00:12:58.855Z,60.74
2019-03-11T00:13:30.012Z,59.84
2019-03-11T00:14:01.222Z,59.37
2019-03-11T00:14:32.376Z,58.58
2019-03-11T00:15:06.812Z,57.68
2019-03-11T00:15:38.049Z,57.48
2019-03-11T00:16:09.248Z,57.43
2019-03-11T00:16:40.424Z,57.67
2019-03-11T00:17:11.630Z,58.09
2019-03-11T00:17:42.795Z,58.50
2019-03-11T00:18:14.003Z,58.94
2019-03-11T00:18:45.174Z,59.56
2019-03-11T00:19:16.445Z,60.25
2019-03-11T00:19:47.614Z,60.87
2019-03-11T00:20:18.788Z,61.44
2019-03-11T00:20:49.972Z,62.00
2019-03-11T00:21:21.158Z,62.72
2019-03-11T00:21:52.378Z,63.66
2019-03-11T00:22:23.620Z,64.51
2019-03-11T00:22:54.793Z,65.19
2019-03-11T00:23:25.984Z,65.05
2019-03-11T00:23:57.159Z,64.62
2019-03-11T00:24:28.324Z,64.02
2019-03-11T00:24:59.513Z,63.33
2019-03-11T00:25:30.747Z,62.66
2019-03-11T00:26:01.941Z,61.91
2019-03-11T00:26:33.107Z,61.37
2019-03-11T00:27:04.292Z,60.87
2019-03-11T00:27:35.477Z,60.11
2019-03-11T00:28:06.723Z,59.32
2019-03-11T00:28:37.955Z,58.21
2019-03-11T00:29:09.471Z,57.53
2019-03-11T00:29:40.651Z,57.20
2019-03-11T00:30:12.349Z,57.20
2019-03-11T00:30:43.523Z,57.43
2019-03-11T00:31:15.699Z,57.86
2019-03-11T00:31:46.885Z,58.28
2019-03-11T00:32:18.074Z,58.82
2019-03-11T00:32:49.302Z,59.41
2019-03-11T00:33:20.499Z,60.14
2019-03-11T00:33:51.690Z,60.78
2019-03-11T00:34:22.968Z,61.48
2019-03-11T00:34:54.177Z,62.27
2019-03-11T00:35:25.364Z,62.85
2019-03-11T00:35:56.558Z,63.83
2019-03-11T00:36:27.724Z,64.89
2019-03-11T00:36:59.059Z,65.08
2019-03-11T00:37:30.215Z,65.11
2019-03-11T00:38:01.448Z,64.89
2019-03-11T00:38:32.601Z,64.24
2019-03-11T00:39:05.108Z,63.46
2019-03-11T00:39:38.026Z,62.80
2019-03-11T00:40:15.687Z,61.82
2019-03-11T00:40:46.854Z,61.18
2019-03-11T00:41:18.099Z,60.52
2019-03-11T00:41:49.278Z,59.96
2019-03-11T00:42:20.590Z,59.34
2019-03-11T00:42:51.750Z,58.53
2019-03-11T00:43:22.948Z,57.73
2019-03-11T00:43:54.114Z,57.33
2019-03-11T00:44:25.332Z,57.37
2019-03-11T00:44:56.490Z,57.56
2019-03-11T00:45:27.681Z,58.10
2019-03-11T00:45:58.826Z,58.67
2019-03-11T00:46:29.993Z,59.22
2019-03-11T00:47:01.171Z,59.88
2019-03-11T00:47:32.334Z,60.43
2019-03-11T00:48:03.495Z,61.10
2019-03-11T00:48:34.663Z,61.67
2019-03-11T00:49:06.045Z,62.36
2019-03-11T00:49:37.190Z,62.87
2019-03-11T00:50:09.756Z,63.93
2019-03-11T00:50:40.895Z,65.02
2019-03-11T00:51:12.047Z,65.47
2019-03-11T00:51:43.222Z,65.47
2019-03-11T00:52:14.387Z,65.05
2019-03-11T00:52:45.636Z,64.40
2019-03-11T00:53:16.921Z,63.66
2019-03-11T00:53:48.081Z,62.86
2019-03-11T00:54:19.247Z,62.08
2019-03-11T00:54:50.445Z,61.29
2019-03-11T00:55:21.616Z,60.83
2019-03-11T00:55:52.776Z,60.12
2019-03-11T00:56:23.985Z,59.69
2019-03-11T00:56:55.131Z,59.09
2019-03-11T00:57:26.339Z,58.41
2019-03-11T00:57:57.516Z,57.55
2019-03-11T00:58:28.707Z,57.25
2019-03-11T00:58:59.883Z,57.24
2019-03-11T00:59:31.096Z,57.55
2019-03-11T01:00:08.501Z,57.94
2019-03-11T01:00:39.826Z,58.47
2019-03-11T01:01:11.112Z,59.15
2019-03-11T01:01:43.310Z,59.63
2019-03-11T01:02:14.497Z,60.44
2019-03-11T01:02:45.692Z,60.87
2019-03-11T01:03:16.879Z,61.80
2019-03-11T01:03:48.054Z,62.72
2019-03-11T01:04:19.232Z,63.75
2019-03-11T01:04:50.528Z,64.96
2019-03-11T01:05:21.722Z,65.36
2019-03-11T01:05:52.884Z,65.38
2019-03-11T01:06:24.086Z,64.94
2019-03-11T01:06:55.249Z,64.35
2019-03-11T01:07:27.455Z,63.70
2019-03-11T01:07:58.614Z,62.85
2019-03-11T01:08:29.832Z,62.10
2019-03-11T01:09:01.073Z,61.55
2019-03-11T01:09:32.326Z,60.75
2019-03-11T01:10:06.986Z,60.19
2019-03-11T01:10:38.288Z,59.56
2019-03-11T01:11:09.539Z,58.67
2019-03-11T01:11:40.726Z,57.89
2019-03-11T01:12:11.927Z,57.66
2019-03-11T01:12:43.099Z,57.63
2019-03-11T01:13:14.300Z,57.71
2019-03-11T01:13:45.477Z,58.20
2019-03-11T01:14:16.651Z,58.74
2019-03-11T01:14:47.805Z,59.47
2019-03-11T01:15:18.992Z,59.97
2019-03-11T01:15:50.280Z,60.74
2019-03-11T01:16:21.423Z,61.53
2019-03-11T01:16:52.621Z,62.15
2019-03-11T01:17:23.806Z,62.66
2019-03-11T01:17:55.013Z,63.53
2019-03-11T01:18:26.177Z,64.38
2019-03-11T01:18:57.379Z,64.72
2019-03-11T01:19:28.546Z,64.92
2019-03-11T01:19:59.739Z,64.73
2019-03-11T01:20:30.917Z,64.08
2019-03-11T01:21:02.102Z,63.40
2019-03-11T01:21:33.297Z,62.63
2019-03-11T01:22:04.483Z,61.81
2019-03-11T01:22:35.980Z,61.00
2019-03-11T01:23:07.157Z,60.38
2019-03-11T01:23:38.348Z,59.59
2019-03-11T01:24:09.556Z,58.89
2019-03-11T01:24:40.745Z,57.92
2019-03-11T01:25:12.551Z,57.43
2019-03-11T01:25:43.732Z,57.43
2019-03-11T01:26:14.916Z,57.69
2019-03-11T01:26:47.114Z,57.99
2019-03-11T01:27:18.287Z,58.46
2019-03-11T01:27:49.478Z,59.09
2019-03-11T01:28:21.660Z,59.77
2019-03-11T01:28:52.828Z,60.30
2019-03-11T01:29:23.995Z,61.14
2019-03-11T01:29:55.184Z,61.79
2019-03-11T01:30:26.410Z,62.44
2019-03-11T01:30:57.600Z,63.31
2019-03-11T01:31:28.819Z,64.20
2019-03-11T01:31:59.986Z,65.07
2019-03-11T01:32:31.201Z,65.14
2019-03-11T01:33:02.362Z,64.65
2019-03-11T01:33:33.628Z,64.37
2019-03-11T01:34:04.837Z,63.67
2019-03-11T01:34:36.066Z,62.96
2019-03-11T01:35:08.342Z,62.22
2019-03-11T01:35:40.791Z,61.59
2019-03-11T01:36:11.950Z,60.81
2019-03-11T01:36:43.176Z,60.17
2019-03-11T01:37:14.319Z,59.70
2019-03-11T01:37:45.538Z,59.28
2019-03-11T01:38:17.787Z,58.44
2019-03-11T01:38:48.983Z,57.66
2019-03-11T01:39:20.164Z,57.26
2019-03-11T01:39:51.355Z,57.29
2019-03-11T01:40:22.533Z,57.56
2019-03-11T01:40:53.707Z,58.09
2019-03-11T01:41:24.856Z,58.54
2019-03-11T01:41:56.089Z,59.18
2019-03-11T01:42:27.239Z,59.77
2019-03-11T01:42:58.454Z,60.38
2019-03-11T01:43:29.605Z,61.13
2019-03-11T01:44:00.815Z,61.84
2019-03-11T01:44:32.006Z,62.31
2019-03-11T01:45:08.911Z,62.58
2019-03-11T01:45:40.061Z,63.33
2019-03-11T01:46:11.287Z,64.34
2019-03-11T01:46:42.450Z,65.02
2019-03-11T01:47:13.776Z,65.13
2019-03-11T01:47:44.948Z,64.73
2019-03-11T01:48:16.181Z,64.09
2019-03-11T01:48:47.330Z,63.28
2019-03-11T01:49:18.534Z,62.51
2019-03-11T01:49:50.074Z,61.76
2019-03-11T01:50:21.281Z,60.99
2019-03-11T01:50:52.452Z,60.27
2019-03-11T01:51:23.712Z,59.72
2019-03-11T01:51:54.983Z,59.17
2019-03-11T01:52:27.218Z,58.33
2019-03-11T01:52:58.458Z,57.44
2019-03-11T01:53:29.696Z,57.01
2019-03-11T01:54:00.922Z,57.17
2019-03-11T01:54:32.175Z,57.50
2019-03-11T01:55:06.512Z,58.01
2019-03-11T01:55:37.754Z,58.55
2019-03-11T01:56:08.986Z,59.21
2019-03-11T01:56:40.139Z,59.78
2019-03-11T01:57:11.354Z,60.36
2019-03-11T01:57:42.511Z,60.99
2019-03-11T01:58:13.733Z,61.64
2019-03-11T01:58:44.934Z,62.33
2019-03-11T01:59:16.136Z,63.21
2019-03-11T01:59:47.301Z,64.43
2019-03-11T02:00:18.518Z,64.83
2019-03-11T02:00:49.687Z,64.99
2019-03-11T02:01:20.886Z,64.76
2019-03-11T02:01:52.049Z,63.99
2019-03-11T02:02:23.256Z,63.37
2019-03-11T02:02:54.413Z,62.55
2019-03-11T02:03:25.657Z,61.86
2019-03-11T02:03:56.811Z,60.94
2019-03-11T02:04:28.027Z,60.27
2019-03-11T02:04:59.233Z,59.60
2019-03-11T02:05:30.423Z,58.46
2019-03-11T02:06:01.631Z,57.16
2019-03-11T02:06:32.816Z,56.69
2019-03-11T02:07:05.143Z,56.56
2019-03-11T02:07:36.301Z,56.85
2019-03-11T02:08:08.911Z,57.06
2019-03-11T02:08:40.087Z,57.52
2019-03-11T02:09:11.304Z,58.19
2019-03-11T02:09:42.656Z,58.57
2019-03-11T02:10:15.698Z,59.15
2019-03-11T02:10:46.860Z,59.74
2019-03-11T02:11:18.074Z,60.24
2019-03-11T02:11:49.235Z,61.05
2019-03-11T02:12:20.439Z,61.66
2019-03-11T02:12:51.595Z,62.34
2019-03-11T02:13:22.801Z,63.23
2019-03-11T02:13:53.955Z,64.46
2019-03-11T02:14:25.266Z,65.16
2019-03-11T02:14:56.425Z,65.26
2019-03-11T02:15:27.628Z,65.01
2019-03-11T02:15:58.839Z,64.45
2019-03-11T02:16:30.084Z,63.97
2019-03-11T02:17:01.345Z,63.36
2019-03-11T02:17:32.578Z,62.61
2019-03-11T02:18:03.841Z,61.86
2019-03-11T02:18:35.160Z,61.31
2019-03-11T02:19:06.672Z,60.71
2019-03-11T02:19:37.940Z,60.05
2019-03-11T02:20:16.909Z,59.61
2019-03-11T02:20:48.152Z,59.16
2019-03-11T02:21:19.390Z,58.06
2019-03-11T02:21:50.650Z,57.59
2019-03-11T02:22:21.942Z,57.63
2019-03-11T02:22:53.105Z,57.92
2019-03-11T02:23:24.294Z,58.44
2019-03-11T02:23:55.454Z,58.83
2019-03-11T02:24:26.638Z,59.43
2019-03-11T02:24:57.809Z,60.16
2019-03-11T02:25:29.037Z,60.82
2019-03-11T02:26:00.181Z,61.54
2019-03-11T02:26:32.484Z,62.13
2019-03-11T02:27:03.663Z,63.00
2019-03-11T02:27:34.924Z,63.92
2019-03-11T02:28:06.157Z,65.05
2019-03-11T02:28:37.380Z,65.65
2019-03-11T02:29:08.546Z,65.73
2019-03-11T02:29:39.745Z,65.43
2019-03-11T02:30:15.578Z,65.01
2019-03-11T02:30:46.781Z,64.29
2019-03-11T02:31:18.017Z,63.49
2019-03-11T02:31:49.272Z,62.58
2019-03-11T02:32:20.502Z,61.81
2019-03-11T02:32:51.728Z,61.32
2019-03-11T02:33:22.962Z,60.68
2019-03-11T02:33:54.381Z,60.08
2019-03-11T02:34:25.629Z,59.48
2019-03-11T02:34:56.858Z,58.66
2019-03-11T02:35:31.114Z,57.92
2019-03-11T02:36:02.343Z,57.54
2019-03-11T02:36:33.556Z,57.41
2019-03-11T02:37:04.712Z,57.74
2019-03-11T02:37:35.921Z,58.18
2019-03-11T02:38:07.074Z,58.66
2019-03-11T02:38:38.261Z,59.24
2019-03-11T02:39:09.627Z,59.86
2019-03-11T02:39:40.768Z,60.47
2019-03-11T02:40:14.958Z,61.11
2019-03-11T02:40:46.294Z,61.24
2019-03-11T02:41:17.515Z,62.44
2019-03-11T02:41:48.707Z,63.43
2019-03-11T02:42:19.912Z,64.50
2019-03-11T02:42:51.170Z,65.32
2019-03-11T02:43:22.370Z,65.54
2019-03-11T02:43:53.549Z,65.48
2019-03-11T02:44:24.723Z,65.12
2019-03-11T02:44:55.919Z,64.47
2019-03-11T02:45:27.217Z,63.84
2019-03-11T02:45:58.500Z,62.99
2019-03-11T02:46:29.702Z,62.31
2019-03-11T02:47:00.869Z,61.67
2019-03-11T02:47:32.094Z,61.12
2019-03-11T02:48:03.249Z,60.56
2019-03-11T02:48:34.457Z,60.01
2019-03-11T02:49:05.623Z,59.66
2019-03-11T02:49:36.929Z,59.24
2019-03-11T02:50:09.469Z,58.31
2019-03-11T02:50:40.673Z,57.58
2019-03-11T02:51:11.826Z,57.21
2019-03-11T02:51:43.051Z,57.21
2019-03-11T02:52:14.195Z,57.46
2019-03-11T02:52:45.384Z,57.98
2019-03-11T02:53:16.549Z,58.32
2019-03-11T02:53:47.767Z,58.80
2019-03-11T02:54:18.924Z,59.36
2019-03-11T02:54:50.130Z,59.98
2019-03-11T02:55:21.301Z,60.58
2019-03-11T02:55:52.535Z,61.17
2019-03-11T02:56:23.707Z,61.83
2019-03-11T02:56:54.915Z,62.48
2019-03-11T02:57:26.066Z,63.39
2019-03-11T02:57:57.279Z,64.55
2019-03-11T02:58:28.444Z,65.19
2019-03-11T02:58:59.783Z,65.28
2019-03-11T02:59:32.433Z,65.06
2019-03-11T03:00:17.926Z,64.44
2019-03-11T03:00:50.973Z,64.29
2019-03-11T03:01:31.031Z,63.15
2019-03-11T03:02:07.029Z,62.57
2019-03-11T03:02:46.847Z,61.93
2019-03-11T03:03:29.036Z,61.32
2019-03-11T03:04:02.169Z,60.65
2019-03-11T03:04:35.247Z,59.68
2019-03-11T03:05:12.464Z,59.00
2019-03-11T03:05:45.625Z,57.77
2019-03-11T03:06:17.159Z,57.03
2019-03-11T03:06:49.384Z,56.80
2019-03-11T03:07:20.637Z,56.76
2019-03-11T03:07:51.872Z,57.15
2019-03-11T03:08:23.061Z,57.47
2019-03-11T03:08:54.257Z,57.82
2019-03-11T03:09:25.516Z,58.39
2019-03-11T03:09:56.730Z,59.05
2019-03-11T03:10:27.954Z,59.51
2019-03-11T03:10:59.115Z,60.01
2019-03-11T03:11:30.340Z,60.63
2019-03-11T03:12:01.522Z,61.25
2019-03-11T03:12:32.824Z,61.71
2019-03-11T03:13:03.986Z,62.27
2019-03-11T03:13:35.178Z,63.12
2019-03-11T03:14:06.438Z,64.36
2019-03-11T03:14:37.670Z,65.03
2019-03-11T03:15:09.028Z,65.40
2019-03-11T03:15:40.235Z,64.97
2019-03-11T03:16:11.396Z,64.64
2019-03-11T03:16:42.595Z,63.94
2019-03-11T03:17:13.772Z,63.15
2019-03-11T03:17:44.986Z,62.48
2019-03-11T03:18:16.155Z,61.63
2019-03-11T03:18:47.344Z,60.99
2019-03-11T03:19:18.504Z,60.31
2019-03-11T03:19:49.719Z,59.72
2019-03-11T03:20:20.865Z,59.25
2019-03-11T03:20:52.072Z,58.36
2019-03-11T03:21:23.217Z,57.46
2019-03-11T03:21:54.422Z,56.84
2019-03-11T03:22:25.585Z,56.71
2019-03-11T03:22:56.793Z,56.85
2019-03-11T03:23:27.940Z,57.38
2019-03-11T03:23:59.147Z,57.72
2019-03-11T03:24:30.311Z,58.16
2019-03-11T03:25:01.517Z,58.58
2019-03-11T03:25:34.727Z,59.15
2019-03-11T03:26:05.918Z,59.82
2019-03-11T03:26:37.059Z,60.37
2019-03-11T03:27:08.284Z,61.03
2019-03-11T03:27:39.562Z,61.45
2019-03-11T03:28:11.010Z,61.91
2019-03-11T03:28:42.239Z,62.11
2019-03-11T03:29:13.487Z,62.73
2019-03-11T03:29:44.745Z,63.70
2019-03-11T03:30:19.191Z,64.70
2019-03-11T03:30:50.595Z,65.33
2019-03-11T03:31:21.910Z,65.34
2019-03-11T03:31:53.222Z,64.82
2019-03-11T03:32:24.506Z,64.48
2019-03-11T03:32:55.713Z,63.78
2019-03-11T03:33:26.891Z,63.06
2019-03-11T03:33:58.081Z,61.83
2019-03-11T03:34:29.330Z,61.07
2019-03-11T03:35:00.852Z,60.46
2019-03-11T03:35:32.202Z,59.75
2019-03-11T03:36:03.413Z,58.99
2019-03-11T03:36:34.653Z,58.07
2019-03-11T03:37:05.904Z,57.09
2019-03-11T03:37:37.048Z,56.45
2019-03-11T03:38:08.278Z,56.20
2019-03-11T03:38:39.438Z,56.29
2019-03-11T03:39:10.622Z,56.66
2019-03-11T03:39:41.799Z,57.13
2019-03-11T03:40:14.568Z,57.57
2019-03-11T03:40:45.720Z,58.03
2019-03-11T03:41:16.911Z,58.65
2019-03-11T03:41:48.052Z,59.56
2019-03-11T03:42:19.216Z,60.01
2019-03-11T03:42:50.509Z,60.97
2019-03-11T03:43:22.032Z,61.61
2019-03-11T03:43:53.253Z,61.99
2019-03-11T03:44:24.427Z,62.61
2019-03-11T03:45:28.252Z,63.56
2019-03-11T03:45:59.422Z,65.38
2019-03-11T03:46:30.598Z,66.23
2019-03-11T03:47:01.759Z,66.28
2019-03-11T03:47:33.921Z,65.87
2019-03-11T03:48:05.115Z,65.37
2019-03-11T03:48:36.425Z,64.57
2019-03-11T03:49:07.671Z,63.49
2019-03-11T03:49:38.849Z,62.64
2019-03-11T03:50:10.006Z,61.90
2019-03-11T03:50:41.172Z,61.02
2019-03-11T03:51:12.334Z,60.04
2019-03-11T03:51:43.507Z,59.10
2019-03-11T03:52:14.661Z,57.97
2019-03-11T03:52:45.840Z,57.08
2019-03-11T03:53:17.016Z,56.53
2019-03-11T03:53:48.185Z,56.40
2019-03-11T03:54:19.394Z,56.49
2019-03-11T03:54:50.549Z,56.74
2019-03-11T03:55:21.746Z,57.22
2019-03-11T03:55:52.911Z,57.70
2019-03-11T03:56:24.112Z,58.34
2019-03-11T03:56:55.278Z,58.99
2019-03-11T03:57:26.465Z,59.55
2019-03-11T03:57:57.613Z,60.17
2019-03-11T03:58:28.883Z,60.92
2019-03-11T03:59:00.115Z,61.53
2019-03-11T03:59:31.252Z,61.93
2019-03-11T04:00:04.868Z,62.44
2019-03-11T04:00:36.372Z,63.18
2019-03-11T04:01:07.550Z,64.14
2019-03-11T04:01:38.909Z,64.45
2019-03-11T04:02:10.059Z,64.78
2019-03-11T04:02:41.224Z,64.57
2019-03-11T04:03:12.420Z,64.16
2019-03-11T04:03:43.569Z,63.57
2019-03-11T04:04:14.715Z,62.72
2019-03-11T04:04:45.886Z,62.07
2019-03-11T04:05:17.092Z,61.40
2019-03-11T04:05:48.365Z,60.21
2019-03-11T04:06:19.538Z,59.39
2019-03-11T04:06:50.723Z,58.34
2019-03-11T04:07:21.922Z,56.96
2019-03-11T04:07:53.104Z,56.71
2019-03-11T04:08:24.295Z,56.46
2019-03-11T04:08:55.438Z,56.51
2019-03-11T04:09:26.652Z,56.89
2019-03-11T04:09:57.815Z,57.27
2019-03-11T04:10:32.298Z,57.80
2019-03-11T04:11:02.084Z,58.43
2019-03-11T04:11:33.292Z,59.13
2019-03-11T04:12:04.458Z,59.79
2019-03-11T04:12:35.927Z,60.28
2019-03-11T04:13:08.247Z,60.89
2019-03-11T04:13:39.665Z,61.26
2019-03-11T04:14:10.896Z,62.01
2019-03-11T04:14:42.134Z,62.36
2019-03-11T04:15:14.664Z,64.10
2019-03-11T04:15:45.920Z,64.23
2019-03-11T04:16:17.123Z,64.41
2019-03-11T04:16:48.354Z,64.61
2019-03-11T04:17:19.580Z,64.48
2019-03-11T04:17:50.871Z,63.98
2019-03-11T04:18:22.141Z,63.34
2019-03-11T04:18:54.302Z,62.51
2019-03-11T04:19:28.920Z,61.59
2019-03-11T04:19:58.579Z,61.12
2019-03-11T04:20:29.794Z,60.33
2019-03-11T04:21:00.957Z,59.92
2019-03-11T04:21:32.178Z,59.43
2019-03-11T04:22:03.336Z,58.62
2019-03-11T04:22:34.643Z,57.42
2019-03-11T04:23:06.032Z,56.92
2019-03-11T04:23:37.235Z,56.71
2019-03-11T04:24:08.383Z,56.89
2019-03-11T04:24:39.643Z,57.22
2019-03-11T04:25:11.304Z,57.79
2019-03-11T04:25:42.525Z,58.27
2019-03-11T04:26:13.672Z,58.86
2019-03-11T04:26:51.073Z,59.48
2019-03-11T04:27:23.237Z,59.89
2019-03-11T04:27:54.437Z,60.47
2019-03-11T04:28:25.619Z,60.97
2019-03-11T04:28:56.868Z,61.31
2019-03-11T04:29:28.118Z,62.52
2019-03-11T04:29:59.325Z,63.78
2019-03-11T04:30:30.565Z,64.57
2019-03-11T04:31:01.802Z,64.65
2019-03-11T04:31:33.035Z,64.57
2019-03-11T04:32:04.292Z,64.19
2019-03-11T04:32:35.832Z,63.51
2019-03-11T04:33:07.106Z,62.95
2019-03-11T04:33:38.316Z,62.12
2019-03-11T04:34:09.483Z,61.41
2019-03-11T04:34:40.679Z,60.73
2019-03-11T04:35:11.933Z,60.03
2019-03-11T04:35:43.130Z,59.40
2019-03-11T04:36:15.273Z,58.40
2019-03-11T04:36:46.480Z,57.60
2019-03-11T04:37:17.618Z,56.95
2019-03-11T04:37:48.818Z,56.73
2019-03-11T04:38:19.994Z,56.73
2019-03-11T04:38:51.175Z,57.10
2019-03-11T04:39:22.311Z,57.48
2019-03-11T04:39:53.520Z,58.01
2019-03-11T04:40:24.686Z,58.42
2019-03-11T04:40:55.891Z,58.90
2019-03-11T04:41:27.047Z,59.46
2019-03-11T04:41:58.255Z,60.24
2019-03-11T04:42:29.411Z,61.02
2019-03-11T04:43:00.604Z,61.59
2019-03-11T04:43:31.779Z,62.47
2019-03-11T04:44:03.023Z,63.10
2019-03-11T04:44:34.245Z,64.23
2019-03-11T04:45:11.285Z,64.39
2019-03-11T04:45:42.594Z,64.28
2019-03-11T04:46:13.831Z,63.69
2019-03-11T04:46:45.079Z,63.03
2019-03-11T04:47:16.315Z,62.37
2019-03-11T04:47:47.603Z,61.92
2019-03-11T04:48:18.851Z,61.31
2019-03-11T04:48:50.057Z,60.70
2019-03-11T04:49:21.250Z,60.25
2019-03-11T04:49:52.467Z,59.63
2019-03-11T04:50:23.623Z,58.85
2019-03-11T04:50:54.848Z,57.75
2019-03-11T04:51:26.012Z,57.07
2019-03-11T04:51:57.258Z,56.88
2019-03-11T04:52:28.424Z,56.91
2019-03-11T04:52:59.635Z,57.19
2019-03-11T04:53:30.794Z,57.63
2019-03-11T04:54:02.007Z,58.18
2019-03-11T04:54:33.146Z,58.68
2019-03-11T04:55:07.962Z,59.31
2019-03-11T04:55:39.112Z,59.70
2019-03-11T04:56:10.324Z,60.33
2019-03-11T04:56:41.493Z,61.14
2019-03-11T04:57:12.704Z,62.29
2019-03-11T04:57:54.787Z,63.39
2019-03-11T04:58:25.981Z,64.35
2019-03-11T04:59:07.935Z,64.51
2019-03-11T04:59:39.453Z,64.56
2019-03-11T05:00:19.373Z,63.67
2019-03-11T05:00:50.617Z,63.20
2019-03-11T05:01:21.855Z,62.40
2019-03-11T05:01:53.140Z,61.46
2019-03-11T05:02:24.377Z,60.67
2019-03-11T05:02:55.637Z,60.24
2019-03-11T05:03:26.929Z,59.49
2019-03-11T05:03:58.125Z,58.44
2019-03-11T05:04:29.301Z,57.27
2019-03-11T05:05:00.516Z,56.67
2019-03-11T05:05:31.704Z,56.47
2019-03-11T05:06:02.868Z,56.53
2019-03-11T05:06:34.058Z,56.87
2019-03-11T05:07:05.222Z,57.11
2019-03-11T05:07:36.454Z,57.66
2019-03-11T05:08:08.883Z,58.07
2019-03-11T05:08:40.120Z,58.72
2019-03-11T05:09:11.369Z,59.23
2019-03-11T05:09:42.523Z,59.91
2019-03-11T05:10:16.196Z,60.52
2019-03-11T05:10:46.821Z,60.94
2019-03-11T05:11:18.028Z,61.90
2019-03-11T05:11:49.201Z,63.05
2019-03-11T05:12:20.417Z,63.67
2019-03-11T05:12:51.574Z,63.76
2019-03-11T05:13:22.798Z,63.59
2019-03-11T05:13:53.985Z,63.10
2019-03-11T05:14:25.188Z,62.54
2019-03-11T05:14:56.354Z,61.72
2019-03-11T05:15:27.532Z,60.87
2019-03-11T05:15:58.722Z,60.20
2019-03-11T05:16:29.923Z,59.43
2019-03-11T05:17:01.155Z,58.65
2019-03-11T05:17:32.391Z,57.51
2019-03-11T05:18:03.641Z,56.92
2019-03-11T05:18:34.817Z,56.75
2019-03-11T05:19:06.015Z,56.82
2019-03-11T05:19:37.203Z,57.03
2019-03-11T05:20:13.255Z,57.46
2019-03-11T05:20:44.495Z,58.05
2019-03-11T05:21:15.730Z,58.76
2019-03-11T05:21:46.924Z,59.30
2019-03-11T05:22:18.116Z,59.89
2019-03-11T05:22:49.303Z,60.51
2019-03-11T05:23:20.493Z,61.16
2019-03-11T05:23:51.696Z,62.14
2019-03-11T05:24:22.887Z,63.00
2019-03-11T05:24:54.089Z,63.53
2019-03-11T05:25:25.273Z,63.49
2019-03-11T05:25:56.460Z,63.02
2019-03-11T05:26:27.664Z,62.63
2019-03-11T05:26:58.839Z,61.85
2019-03-11T05:27:30.075Z,61.01
2019-03-11T05:28:01.260Z,60.37
2019-03-11T05:28:32.465Z,59.63
2019-03-11T05:29:03.663Z,58.63
2019-03-11T05:29:34.830Z,57.32
2019-03-11T05:30:19.332Z,56.75
2019-03-11T05:30:50.509Z,56.55
2019-03-11T05:31:21.754Z,56.81
2019-03-11T05:31:52.920Z,57.07
2019-03-11T05:32:24.140Z,57.57
2019-03-11T05:32:55.309Z,58.12
2019-03-11T05:33:26.559Z,58.59
2019-03-11T05:33:57.796Z,59.34
2019-03-11T05:34:30.122Z,59.97
2019-03-11T05:35:01.263Z,60.63
2019-03-11T05:35:32.503Z,61.20
2019-03-11T05:36:03.648Z,62.35
2019-03-11T05:36:34.855Z,62.90
2019-03-11T05:37:06.020Z,63.52
2019-03-11T05:37:37.217Z,63.73
2019-03-11T05:38:09.361Z,63.43
2019-03-11T05:38:40.569Z,62.68
2019-03-11T05:39:11.754Z,61.80
2019-03-11T05:39:42.929Z,61.16
2019-03-11T05:40:18.851Z,60.54
2019-03-11T05:40:50.997Z,60.02
2019-03-11T05:41:22.197Z,59.30
2019-03-11T05:41:53.351Z,58.30
2019-03-11T05:42:24.659Z,57.24
2019-03-11T05:42:55.812Z,56.72
2019-03-11T05:43:27.044Z,56.32
2019-03-11T05:43:58.195Z,56.42
2019-03-11T05:44:29.385Z,56.65
2019-03-11T05:45:00.605Z,57.10
2019-03-11T05:45:31.804Z,57.58
2019-03-11T05:46:02.957Z,58.23
2019-03-11T05:46:34.154Z,59.00
2019-03-11T05:47:05.303Z,59.30
2019-03-11T05:47:36.825Z,60.06
2019-03-11T05:48:07.978Z,60.78
2019-03-11T05:48:39.201Z,61.59
2019-03-11T05:49:10.336Z,62.78
2019-03-11T05:49:42.532Z,63.46
2019-03-11T05:50:14.982Z,63.49
2019-03-11T05:50:46.215Z,63.32
2019-03-11T05:51:17.370Z,62.75
2019-03-11T05:51:48.620Z,62.06
2019-03-11T05:52:19.778Z,61.33
2019-03-11T05:52:51.012Z,60.67
2019-03-11T05:53:22.165Z,59.92
2019-03-11T05:53:53.388Z,59.24
2019-03-11T05:54:24.571Z,58.03
2019-03-11T05:54:55.803Z,57.13
2019-03-11T05:55:27.042Z,56.51
2019-03-11T05:55:58.406Z,56.47
2019-03-11T05:56:30.744Z,56.41
2019-03-11T05:57:02.018Z,56.76
2019-03-11T05:57:33.343Z,57.27
2019-03-11T05:58:04.585Z,57.88
2019-03-11T05:58:36.979Z,58.31
2019-03-11T05:59:08.211Z,58.93
2019-03-11T05:59:39.648Z,59.29
2019-03-11T06:00:29.280Z,60.00
2019-03-11T06:01:00.558Z,60.15
2019-03-11T06:01:31.776Z,62.14
2019-03-11T06:02:02.992Z,63.23
2019-03-11T06:02:36.457Z,63.68
2019-03-11T06:03:08.275Z,63.54
2019-03-11T06:03:39.419Z,63.00
2019-03-11T06:04:10.641Z,62.11
2019-03-11T06:04:41.780Z,61.46
2019-03-11T06:05:12.972Z,60.71
2019-03-11T06:05:44.193Z,59.92
2019-03-11T06:06:15.363Z,59.11
2019-03-11T06:06:46.554Z,57.91
2019-03-11T06:07:17.768Z,56.81
2019-03-11T06:07:48.946Z,56.18
2019-03-11T06:08:21.848Z,55.91
2019-03-11T06:08:53.101Z,55.97
2019-03-11T06:09:24.312Z,56.22
2019-03-11T06:09:55.495Z,56.62
2019-03-11T06:10:26.776Z,57.08
2019-03-11T06:10:57.953Z,57.65
2019-03-11T06:11:29.158Z,58.06
2019-03-11T06:12:00.347Z,58.63
2019-03-11T06:12:31.662Z,59.21
2019-03-11T06:13:02.792Z,59.65
2019-03-11T06:13:36.163Z,60.39
2019-03-11T06:14:07.061Z,60.99
2019-03-11T06:14:38.238Z,61.64
2019-03-11T06:15:11.721Z,62.73
2019-03-11T06:15:42.935Z,63.05
2019-03-11T06:16:14.087Z,63.53
2019-03-11T06:16:45.294Z,63.27
2019-03-11T06:17:16.427Z,62.67
2019-03-11T06:17:47.721Z,62.00
2019-03-11T06:18:20.880Z,61.32
2019-03-11T06:18:52.300Z,60.51
2019-03-11T06:19:23.457Z,59.34
2019-03-11T06:19:56.610Z,58.13
2019-03-11T06:20:42.591Z,56.89
2019-03-11T06:21:15.692Z,56.04
2019-03-11T06:21:48.750Z,56.00
2019-03-11T06:22:21.259Z,56.05
2019-03-11T06:22:52.431Z,56.46
2019-03-11T06:23:23.627Z,56.82
2019-03-11T06:23:54.778Z,57.41
2019-03-11T06:24:25.982Z,57.93
2019-03-11T06:24:57.160Z,58.48
2019-03-11T06:25:28.345Z,58.95
2019-03-11T06:25:59.513Z,59.59
2019-03-11T06:26:30.696Z,60.17
2019-03-11T06:27:01.871Z,60.69
2019-03-11T06:27:34.048Z,61.16
2019-03-11T06:28:05.232Z,61.87
2019-03-11T06:28:36.812Z,62.83
2019-03-11T06:29:08.005Z,63.62
2019-03-11T06:29:39.197Z,63.79
2019-03-11T06:30:10.683Z,63.50
2019-03-11T06:30:41.866Z,62.92
2019-03-11T06:31:13.043Z,62.02
2019-03-11T06:31:44.239Z,61.14
2019-03-11T06:32:15.435Z,60.32
2019-03-11T06:32:46.612Z,59.49
2019-03-11T06:33:17.791Z,58.36
2019-03-11T06:33:48.979Z,57.15
2019-03-11T06:34:20.157Z,56.46
2019-03-11T06:34:51.338Z,56.13
2019-03-11T06:35:22.679Z,56.11
2019-03-11T06:35:53.909Z,56.32
2019-03-11T06:36:25.115Z,56.61
2019-03-11T06:36:56.297Z,57.08
2019-03-11T06:37:27.491Z,57.72
2019-03-11T06:37:58.705Z,58.33
2019-03-11T06:38:29.883Z,59.03
2019-03-11T06:39:06.031Z,59.31
2019-03-11T06:39:37.085Z,59.97
2019-03-11T06:40:10.272Z,60.84
2019-03-11T06:40:41.514Z,61.44
2019-03-11T06:41:12.747Z,62.21
2019-03-11T06:41:43.970Z,63.35
2019-03-11T06:42:15.216Z,64.02
2019-03-11T06:42:46.454Z,64.23
2019-03-11T06:43:17.679Z,63.96
2019-03-11T06:43:48.928Z,63.39
2019-03-11T06:44:20.214Z,62.61
2019-03-11T06:44:51.513Z,61.73
2019-03-11T06:45:22.701Z,61.04
2019-03-11T06:45:53.835Z,60.15
2019-03-11T06:46:25.029Z,59.28
2019-03-11T06:46:56.182Z,58.17
2019-03-11T06:47:27.398Z,57.04